• Join FlightAware (Why Join?)
  • Login
  • US Flag 
07:54PM EDT


 

Airport Tracker/Info


-or-


 

Live Flight TrackerFlight Track Log ✈ C-GJRV ✈ 07-Aug-2013 ✈ LFVP / FSP - CYYT

Flight Track Log - Related Links

Times and Time Zones

All times are in EDT time to prevent confusion due to time zone crossing. See the C-GJRV flight status page for this flight to view local times or setup timezone preferences in your user account.

Time Position Orientation Groundspeed Altitude Reporting Facility
EDT Latitude Longitude Course Direction KTS MPH feet Rate Location/Type
05:32PM 46.7739 -56.1338 69° East  Level Estimated
05:33PM 46.7851 -56.0920 69° East  Level Estimated
05:34PM 46.7963 -56.0503 69° East  Level Estimated
05:35PM 46.8075 -56.0085 69° East  Level Estimated
05:36PM 46.8186 -55.9667 69° East  Level Estimated
05:37PM 46.8298 -55.9248 69° East  Level Estimated
05:38PM 46.8409 -55.8830 69° East  Level Estimated
05:39PM 46.8520 -55.8411 69° East  Level Estimated
05:40PM 46.8631 -55.7993 69° East  Level Estimated
05:41PM 46.8742 -55.7574 69° East  Level Estimated
05:42PM 46.8853 -55.7155 69° East  Level Estimated
05:43PM 46.8964 -55.6735 69° East  Level Estimated
05:44PM 46.9074 -55.6316 69° East  Level Estimated
05:45PM 46.9184 -55.5896 69° East  Level Estimated
05:46PM 46.9294 -55.5476 69° East  Level Estimated
05:47PM 46.9404 -55.5056 69° East  Level Estimated
05:48PM 46.9514 -55.4636 69° East  Level Estimated
05:49PM 46.9623 -55.4216 69° East  Level Estimated
05:50PM 46.9733 -55.3795 69° East  Level Estimated
05:51PM 46.9842 -55.3375 69° East  Level Estimated
05:52PM 46.9952 -55.2954 69° East  Level Estimated
05:53PM 47.0061 -55.2533 69° East  Level Estimated
05:54PM 47.0169 -55.2112 69° East  Level Estimated
05:55PM 47.0278 -55.1690 69° East  Level Estimated
05:56PM 47.0387 -55.1269 69° East  Level Estimated
05:57PM 47.0495 -55.0847 69° East  Level Estimated
05:58PM 47.0603 -55.0425 69° East  Level Estimated
05:59PM 47.0711 -55.0003 69° East  Level Estimated
06:00PM 47.0819 -54.9581 69° East  Level Estimated
06:01PM 47.0927 -54.9159 69° East  Level Estimated
06:02PM 47.1035 -54.8736 69° East  Level Estimated
06:03PM 47.1142 -54.8313 70° East  Level Estimated
06:04PM 47.1250 -54.7890 70° East  Level Estimated
06:05PM 47.1357 -54.7467 70° East  Level Estimated
06:06PM 47.1464 -54.7044 70° East  Level Estimated
06:07PM 47.1571 -54.6621 70° East  Level Estimated
06:08PM 47.1677 -54.6197 70° East  Level Estimated
06:09PM 47.1784 -54.5773 70° East  Level Estimated
06:10PM 47.1890 -54.5349 70° East  Level Estimated
06:11PM 47.1996 -54.4925 70° East  Level Estimated
06:12PM 47.2102 -54.4501 70° East  Level Estimated
06:13PM 47.2208 -54.4077 70° East  Level Estimated
06:14PM 47.2314 -54.3652 70° East  Level Estimated
06:15PM 47.2420 -54.3227 70° East  Level Estimated
06:16PM 47.2525 -54.2802 70° East  Level Estimated
06:17PM 47.2630 -54.2377 70° East  Level Estimated
06:18PM 47.2735 -54.1952 70° East  Level Estimated
06:19PM 47.2840 -54.1526 70° East  Level Estimated
06:20PM 47.2945 -54.1101 70° East  Level Estimated
06:21PM 47.3050 -54.0675 70° East  Level Estimated
06:22PM 47.3154 -54.0249 70° East  Level Estimated
06:23PM 47.3259 -53.9823 70° East  Level Estimated
06:24PM 47.3363 -53.9397 70° East  Level Estimated
06:25PM 47.3467 -53.8970 70° East  Level Estimated
06:26PM 47.3571 -53.8544 70° East  Level Estimated
06:27PM 47.3675 -53.8117 70° East  Level Estimated
06:28PM 47.3778 -53.7690 70° East  Level Estimated
06:29PM 47.3881 -53.7263 70° East  Level Estimated
06:30PM 47.3985 -53.6835 70° East  Level Estimated
06:31PM 47.4088 -53.6408 70° East  Level Estimated
06:32PM 47.4191 -53.5980 70° East  Level Estimated
06:33PM 47.4294 -53.5552 70° East  Level Estimated
06:34PM 47.4396 -53.5125 70° East  Level Estimated
06:35PM 47.4498 -53.4696 71° East  Level Estimated
06:36PM 47.4601 -53.4268 71° East  Level Estimated
06:37PM 47.4703 -53.3840 71° East  Level Estimated
06:38PM 47.4805 -53.3411 71° East  Level Estimated
06:39PM 47.4907 -53.2982 71° East  Level Estimated
06:40PM 47.5008 -53.2553 71° East  Level Estimated
06:41PM 47.5110 -53.2124 71° East  Level Estimated
06:42PM 47.5211 -53.1695 71° East  Level Estimated
06:43PM 47.5312 -53.1265 71° East  Level Estimated
06:44PM 47.5413 -53.0836 71° East  Level Estimated
06:45PM 47.5514 -53.0406 71° East  Level Estimated
06:46PM 47.5615 -52.9976 71° East  Level Estimated
06:47PM 47.5715 -52.9546 71° East  Level Estimated
06:48PM 47.5816 -52.9115 71° East  Level Estimated
06:49PM 47.5916 -52.8685 71° East  Level Estimated
06:50PM 47.6016 -52.8255 71° East  Level Estimated
06:51PM 47.6116 -52.7824 71° East  Level Estimated
06:52PM 47.6186 -52.7519 71° East  Level Estimated
06:53PM 47.6186 -52.7519 270° West  Level Estimated
06:54PM 47.6186 -52.7519 270° West  Level Estimated
06:55PM 47.6186 -52.7519 270° West  Level Estimated
06:56PM 47.6186 -52.7519 270° West  Level Estimated
06:57PM 47.6186 -52.7519 270° West  Level Estimated
06:58PM 47.6186 -52.7519 270° West  Level Estimated
06:59PM 47.6186 -52.7519 270° West  Level Estimated
07:00PM 47.6186 -52.7519 270° West  Level Estimated
07:01PM 47.6186 -52.7519 270° West  Level Estimated
07:02PM 47.6186 -52.7519 270° West  Level Estimated
07:03PM 47.6186 -52.7519 270° West  Level Estimated
07:04PM 47.6186 -52.7519 270° West  Level Estimated
07:05PM 47.6186 -52.7519 270° West  Level Estimated
07:06PM 47.6186 -52.7519 270° West  Level Estimated
07:07PM 47.6186 -52.7519 270° West  Level Estimated